Time;durP1;ratioP1;P1;durP2;ratioP2;P2;SDS_P1;SDS_P2;PMS_P1;PMS_P2;Temp;Humidity;BMP_temperature;BMP_pressure;BME280_temperature;BME280_humidity;BME280_pressure;Samples;Min_cycle;Max_cycle;Signal;HPM_P1;HPM_P2
2024/01/23 00:01:11;;;;;;;19.48;2.88;;;6.40;99.90;;;;;;5029318;28;20052;-82
2024/01/23 00:03:36;;;;;;;15.73;3.03;;;6.40;99.90;;;;;;4994867;28;20420;-83
2024/01/23 00:06:02;;;;;;;13.93;2.67;;;6.30;99.90;;;;;;5020753;28;20056;-82
2024/01/23 00:08:28;;;;;;;12.73;1.70;;;6.30;99.90;;;;;;5030555;28;20057;-84
2024/01/23 00:10:55;;;;;;;18.48;3.97;;;6.30;99.90;;;;;;5026792;28;20057;-83
2024/01/23 00:13:21;;;;;;;15.65;2.35;;;6.40;99.90;;;;;;5030805;28;20042;-82
2024/01/23 00:15:47;;;;;;;17.48;2.38;;;6.40;99.90;;;;;;5030746;28;20075;-82
2024/01/23 00:18:12;;;;;;;19.10;2.30;;;6.30;99.90;;;;;;5026666;28;20093;-83
2024/01/23 00:20:38;;;;;;;12.90;2.67;;;6.30;99.90;;;;;;5030556;28;20191;-83
2024/01/23 00:23:03;;;;;;;18.85;2.60;;;6.30;99.90;;;;;;5032323;28;20052;-84
2024/01/23 00:25:29;;;;;;;23.05;3.47;;;6.30;99.90;;;;;;5030416;28;20073;-84
2024/01/23 00:27:55;;;;;;;13.65;2.80;;;6.30;99.90;;;;;;5028174;28;20045;-83
2024/01/23 00:30:20;;;;;;;14.02;2.38;;;6.30;99.90;;;;;;5030259;28;20087;-83
2024/01/23 00:32:46;;;;;;;17.85;3.38;;;6.30;99.90;;;;;;5030008;28;20053;-84
2024/01/23 00:35:12;;;;;;;19.10;2.80;;;6.30;99.90;;;;;;5030672;28;20144;-83
2024/01/23 00:37:37;;;;;;;14.15;2.25;;;6.20;99.90;;;;;;5026185;28;20136;-83
2024/01/23 00:40:04;;;;;;;17.40;2.63;;;6.20;99.90;;;;;;5030317;28;20061;-83
2024/01/23 00:42:30;;;;;;;15.35;2.33;;;6.20;99.90;;;;;;5030354;28;20041;-84
2024/01/23 00:44:56;;;;;;;11.23;2.10;;;6.30;99.90;;;;;;5030106;28;20407;-82
2024/01/23 00:47:21;;;;;;;15.27;2.42;;;6.20;99.90;;;;;;5028373;28;20063;-84
2024/01/23 00:49:47;;;;;;;17.25;2.58;;;6.30;99.90;;;;;;5029997;28;20064;-84
2024/01/23 00:52:13;;;;;;;18.38;2.97;;;6.20;99.90;;;;;;5030520;28;20049;-83
2024/01/23 00:54:38;;;;;;;15.02;2.63;;;6.30;99.90;;;;;;5029652;28;20053;-84
2024/01/23 00:57:05;;;;;;;14.68;2.55;;;6.50;99.90;;;;;;5029689;28;20054;-84
2024/01/23 00:59:32;;;;;;;11.13;1.90;;;6.20;99.90;;;;;;5030108;28;20049;-82
2024/01/23 01:01:58;;;;;;;16.90;2.28;;;6.20;99.90;;;;;;5029822;28;20053;-85
2024/01/23 01:04:24;;;;;;;17.52;2.40;;;6.20;99.90;;;;;;5030456;28;20060;-84
2024/01/23 01:06:49;;;;;;;20.45;2.97;;;6.10;99.90;;;;;;5029830;28;20033;-84
2024/01/23 01:09:15;;;;;;;18.05;2.60;;;6.20;99.90;;;;;;5027135;28;20041;-84
2024/01/23 01:11:41;;;;;;;15.55;2.63;;;6.20;99.90;;;;;;5029838;28;20120;-81
2024/01/23 01:14:07;;;;;;;17.52;2.63;;;6.20;99.90;;;;;;5029928;28;20147;-83
2024/01/23 01:16:32;;;;;;;18.67;3.70;;;6.20;99.90;;;;;;5029563;28;20057;-83
2024/01/23 01:18:58;;;;;;;18.17;2.50;;;6.20;99.90;;;;;;5027688;28;20046;-83
2024/01/23 01:21:24;;;;;;;14.40;2.20;;;6.30;99.90;;;;;;5029658;28;20419;-84
2024/01/23 01:23:50;;;;;;;16.52;3.10;;;6.40;99.90;;;;;;5029313;28;20128;-84
2024/01/23 01:26:15;;;;;;;15.52;2.55;;;6.20;99.90;;;;;;5029011;28;20053;-82
2024/01/23 01:28:41;;;;;;;18.77;2.45;;;6.30;99.90;;;;;;5028734;28;20049;-82
2024/01/23 01:31:07;;;;;;;18.08;2.70;;;6.20;99.90;;;;;;5023667;28;20057;-84
2024/01/23 01:33:32;;;;;;;13.15;2.30;;;6.30;99.90;;;;;;5009768;28;20141;-84
2024/01/23 01:35:58;;;;;;;15.52;2.65;;;6.20;99.90;;;;;;5009807;28;20212;-83
2024/01/23 01:38:24;;;;;;;19.45;2.90;;;6.20;99.90;;;;;;5013389;28;20046;-84
2024/01/23 01:40:49;;;;;;;18.45;2.30;;;6.10;99.90;;;;;;5009849;28;20100;-84
2024/01/23 01:43:42;;;;;;;14.43;2.28;;;6.20;99.90;;;;;;5009696;28;20510;-84
2024/01/23 01:46:28;;;;;;;14.35;2.53;;;6.10;99.90;;;;;;5006472;28;20179;-83
2024/01/23 01:48:54;;;;;;;14.55;2.42;;;6.20;99.90;;;;;;5022014;28;20053;-84
2024/01/23 01:51:23;;;;;;;18.48;2.83;;;6.80;99.90;;;;;;5029777;28;20041;-84
2024/01/23 01:53:49;;;;;;;18.45;2.70;;;6.10;99.90;;;;;;5029130;28;20041;-84
2024/01/23 01:56:16;;;;;;;18.38;3.65;;;6.10;99.90;;;;;;5028861;28;20516;-83
2024/01/23 01:58:43;;;;;;;16.20;2.40;;;6.10;99.90;;;;;;5027782;28;20048;-83
2024/01/23 02:01:10;;;;;;;16.60;2.80;;;6.10;99.90;;;;;;5026284;28;20058;-83
2024/01/23 02:03:35;;;;;;;12.73;2.47;;;6.00;99.90;;;;;;5027363;28;20046;-81
2024/01/23 02:06:03;;;;;;;15.02;2.97;;;6.00;99.90;;;;;;5029436;28;20041;-83
2024/01/23 02:08:30;;;;;;;12.05;3.00;;;6.00;99.90;;;;;;5029219;28;20046;-83
2024/01/23 02:10:56;;;;;;;15.45;3.03;;;6.00;99.90;;;;;;5028177;28;20656;-83
2024/01/23 02:13:26;;;;;;;17.67;2.47;;;6.00;99.90;;;;;;5028849;28;20057;-84
2024/01/23 02:15:51;;;;;;;13.50;2.90;;;6.00;99.90;;;;;;5029260;28;20053;-82
2024/01/23 02:18:18;;;;;;;19.50;2.85;;;6.00;99.90;;;;;;5029388;28;20076;-84
2024/01/23 02:20:43;;;;;;;16.10;2.63;;;6.00;99.90;;;;;;5028821;28;20136;-83
2024/01/23 02:23:13;;;;;;;13.35;2.55;;;6.00;99.90;;;;;;5031358;28;20121;-84
2024/01/23 02:25:43;;;;;;;20.38;3.38;;;6.00;99.90;;;;;;5032314;28;20057;-84
2024/01/23 02:28:10;;;;;;;26.23;3.65;;;6.00;99.90;;;;;;5013353;28;20413;-84
2024/01/23 02:30:36;;;;;;;16.65;2.80;;;5.90;99.90;;;;;;5031449;28;20041;-84
2024/01/23 02:33:05;;;;;;;19.05;2.55;;;5.90;99.90;;;;;;5032102;28;20491;-82
2024/01/23 02:35:32;;;;;;;16.95;2.33;;;5.90;99.90;;;;;;5016227;28;20053;-82
2024/01/23 02:37:58;;;;;;;18.30;3.20;;;5.90;99.90;;;;;;5032533;28;20511;-83
2024/01/23 02:40:24;;;;;;;16.40;3.10;;;5.90;99.90;;;;;;5032241;28;20136;-83
2024/01/23 02:42:49;;;;;;;16.60;2.67;;;5.90;99.90;;;;;;5031807;28;20037;-84
2024/01/23 02:45:15;;;;;;;17.33;2.90;;;5.90;99.90;;;;;;5032858;28;20049;-83
2024/01/23 02:47:42;;;;;;;19.00;3.35;;;5.90;99.90;;;;;;5029129;28;20513;-81
2024/01/23 02:50:09;;;;;;;20.70;4.20;;;5.90;99.90;;;;;;5032508;28;20543;-83
2024/01/23 02:52:36;;;;;;;18.30;2.92;;;5.90;99.90;;;;;;5031441;28;20533;-84
2024/01/23 02:55:02;;;;;;;19.02;2.90;;;5.90;99.90;;;;;;5032289;28;20049;-83
2024/01/23 02:57:28;;;;;;;21.17;3.50;;;6.00;99.90;;;;;;5032312;28;20057;-84
2024/01/23 02:59:54;;;;;;;21.48;3.30;;;6.00;99.90;;;;;;5032327;28;20398;-83
2024/01/23 03:02:20;;;;;;;22.70;3.63;;;6.10;99.90;;;;;;5030782;28;20041;-84
2024/01/23 03:04:46;;;;;;;18.35;3.13;;;6.10;99.90;;;;;;5032479;28;20042;-83
2024/01/23 03:07:13;;;;;;;13.75;2.75;;;6.10;99.90;;;;;;5032126;28;20384;-83
2024/01/23 03:09:39;;;;;;;19.13;2.95;;;6.10;99.90;;;;;;5032435;28;20444;-83
2024/01/23 03:12:18;;;;;;;17.73;3.05;;;6.10;99.90;;;;;;5028462;28;20064;-84
2024/01/23 03:14:48;;;;;;;21.25;3.78;;;6.10;99.90;;;;;;5032031;28;20049;-83
2024/01/23 03:17:15;;;;;;;22.00;3.85;;;6.10;99.90;;;;;;5031621;28;20144;-81
2024/01/23 03:19:42;;;;;;;17.85;3.38;;;6.20;99.90;;;;;;5031561;28;20045;-82
2024/01/23 03:22:08;;;;;;;18.38;3.97;;;6.20;99.90;;;;;;5022248;28;20182;-84
2024/01/23 03:24:37;;;;;;;26.70;4.95;;;6.20;99.90;;;;;;5030700;28;20057;-83
2024/01/23 03:27:04;;;;;;;24.88;3.97;;;6.20;99.90;;;;;;5032263;28;20057;-83
2024/01/23 03:29:40;;;;;;;20.38;2.80;;;6.20;99.90;;;;;;5031678;28;20089;-84
2024/01/23 03:32:07;;;;;;;18.65;3.40;;;6.20;99.90;;;;;;5029687;28;20061;-82
2024/01/23 03:34:33;;;;;;;22.73;3.53;;;6.20;99.90;;;;;;5031695;28;20049;-83
2024/01/23 03:37:01;;;;;;;27.20;4.20;;;6.20;99.90;;;;;;5031563;28;20049;-84
2024/01/23 03:39:27;;;;;;;25.80;3.78;;;6.20;99.90;;;;;;5031898;28;20057;-81
2024/01/23 03:41:53;;;;;;;18.92;3.00;;;6.40;99.90;;;;;;5023312;28;20140;-84
2024/01/23 03:44:20;;;;;;;26.33;3.72;;;6.20;99.90;;;;;;5031024;28;20456;-83
2024/01/23 03:46:49;;;;;;;22.65;3.25;;;6.20;99.90;;;;;;5030715;28;20060;-83
2024/01/23 03:49:15;;;;;;;23.88;4.85;;;6.20;99.90;;;;;;5010308;28;20136;-83
2024/01/23 03:51:41;;;;;;;29.08;4.10;;;6.20;99.90;;;;;;5026762;28;20120;-82
2024/01/23 03:54:07;;;;;;;24.02;3.85;;;6.20;99.90;;;;;;5030842;28;20049;-83
2024/01/23 03:56:32;;;;;;;23.38;3.63;;;6.20;99.90;;;;;;5031392;28;20045;-84
2024/01/23 03:58:58;;;;;;;24.05;3.55;;;6.20;99.90;;;;;;5031502;28;20054;-83
2024/01/23 04:01:23;;;;;;;29.20;4.85;;;6.40;99.90;;;;;;5029226;28;20058;-83
2024/01/23 04:03:49;;;;;;;20.33;3.30;;;6.30;99.90;;;;;;5020390;28;20069;-83
2024/01/23 04:06:15;;;;;;;22.67;3.35;;;6.60;99.90;;;;;;5011130;28;20172;-84
2024/01/23 04:08:40;;;;;;;25.50;4.18;;;6.30;99.90;;;;;;5011120;28;20476;-82
2024/01/23 04:11:06;;;;;;;28.25;3.70;;;6.40;99.90;;;;;;5015440;28;20171;-82
2024/01/23 04:13:32;;;;;;;20.02;3.83;;;6.30;99.90;;;;;;5030231;28;20083;-84
2024/01/23 04:15:58;;;;;;;18.83;3.17;;;6.30;99.90;;;;;;5030137;28;20384;-83
2024/01/23 04:18:23;;;;;;;20.42;3.60;;;6.30;99.90;;;;;;5012977;28;20048;-84
2024/01/23 04:20:49;;;;;;;16.70;3.30;;;6.30;99.90;;;;;;5022136;28;20048;-84
2024/01/23 04:23:14;;;;;;;18.73;3.80;;;6.60;99.90;;;;;;5030534;28;20053;-82
2024/01/23 04:25:40;;;;;;;29.80;5.03;;;6.40;99.90;;;;;;5030219;28;20408;-84
2024/01/23 04:28:06;;;;;;;27.55;4.18;;;6.30;99.90;;;;;;5030444;28;20095;-82
2024/01/23 04:30:31;;;;;;;26.13;4.10;;;6.40;99.90;;;;;;5029996;28;20049;-83
2024/01/23 04:32:57;;;;;;;23.48;3.75;;;6.40;99.90;;;;;;5029697;28;20041;-82
2024/01/23 04:35:23;;;;;;;18.50;3.67;;;6.40;99.90;;;;;;5030742;28;20510;-84
2024/01/23 04:37:48;;;;;;;27.30;3.90;;;6.40;99.90;;;;;;5030336;28;20060;-84
2024/01/23 04:40:14;;;;;;;24.80;5.05;;;6.30;99.90;;;;;;5029535;28;20128;-83
2024/01/23 04:42:40;;;;;;;19.85;3.08;;;6.40;99.90;;;;;;5030078;28;20041;-84
2024/01/23 04:45:08;;;;;;;26.27;4.05;;;6.60;99.90;;;;;;5027013;28;20422;-82
2024/01/23 04:47:34;;;;;;;28.80;4.68;;;6.40;99.90;;;;;;5022032;28;20045;-84
2024/01/23 04:50:00;;;;;;;18.95;4.05;;;6.50;99.90;;;;;;5030072;28;20045;-83
2024/01/23 04:52:26;;;;;;;27.42;4.53;;;6.40;99.90;;;;;;5028079;28;20064;-82
2024/01/23 04:54:52;;;;;;;24.13;3.88;;;6.50;99.90;;;;;;5030024;28;20057;-84
2024/01/23 04:57:18;;;;;;;34.75;5.40;;;6.50;99.90;;;;;;5029751;28;20053;-84
2024/01/23 04:59:44;;;;;;;25.23;4.28;;;6.50;99.90;;;;;;5030004;28;20057;-84
2024/01/23 05:02:10;;;;;;;25.10;3.40;;;6.50;99.90;;;;;;5019312;28;20502;-84
2024/01/23 05:04:36;;;;;;;26.20;4.53;;;6.50;99.90;;;;;;4993770;28;20042;-83
2024/01/23 05:07:01;;;;;;;27.85;5.35;;;6.50;99.90;;;;;;5010364;28;20048;-84
2024/01/23 05:09:31;;;;;;;24.17;4.40;;;6.50;99.90;;;;;;5009884;28;20169;-84
2024/01/23 05:11:57;;;;;;;28.13;4.25;;;6.60;99.90;;;;;;5027519;28;20111;-82
2024/01/23 05:14:23;;;;;;;26.20;5.72;;;6.50;99.90;;;;;;5029522;28;20112;-84
2024/01/23 05:16:48;;;;;;;26.98;6.45;;;6.50;99.90;;;;;;5029940;28;20132;-84
2024/01/23 05:19:14;;;;;;;23.80;3.85;;;6.50;99.90;;;;;;5029560;28;20119;-82
2024/01/23 05:21:40;;;;;;;22.92;4.43;;;6.50;99.90;;;;;;5027895;28;20094;-84
2024/01/23 05:24:06;;;;;;;28.25;4.10;;;6.50;99.90;;;;;;5029314;28;20149;-81
2024/01/23 05:26:31;;;;;;;25.35;4.82;;;6.50;99.90;;;;;;5013521;28;20499;-82
2024/01/23 05:28:58;;;;;;;27.23;4.03;;;6.50;99.90;;;;;;5029813;28;20099;-84
2024/01/23 05:31:24;;;;;;;23.98;4.00;;;6.60;99.90;;;;;;5028634;28;20049;-83
2024/01/23 05:33:49;;;;;;;28.33;5.15;;;6.70;99.90;;;;;;5029399;28;20046;-84
2024/01/23 05:36:15;;;;;;;30.92;4.30;;;6.60;99.90;;;;;;5026823;28;20095;-85
2024/01/23 05:38:41;;;;;;;31.88;4.00;;;6.60;99.90;;;;;;5028156;28;20053;-81
2024/01/23 05:41:08;;;;;;;26.33;5.03;;;6.50;99.90;;;;;;5026757;28;20084;-84
2024/01/23 05:43:33;;;;;;;26.48;4.75;;;6.50;99.90;;;;;;5029317;28;20049;-83
2024/01/23 05:45:59;;;;;;;31.33;4.75;;;6.60;99.90;;;;;;5022306;28;20046;-85
2024/01/23 05:48:24;;;;;;;34.78;5.60;;;6.60;99.90;;;;;;5009624;28;20558;-83
2024/01/23 05:50:50;;;;;;;25.38;5.28;;;6.60;99.90;;;;;;5012726;28;20056;-84
2024/01/23 05:53:16;;;;;;;21.27;4.63;;;6.80;99.90;;;;;;5027421;28;20045;-83
2024/01/23 05:55:41;;;;;;;31.95;5.32;;;6.60;99.90;;;;;;5030705;28;20479;-82
2024/01/23 05:58:07;;;;;;;25.60;4.55;;;6.60;99.90;;;;;;5032680;28;20119;-83
2024/01/23 06:00:33;;;;;;;24.67;3.83;;;6.60;99.90;;;;;;5021039;28;20056;-83
2024/01/23 06:02:58;;;;;;;31.08;5.70;;;6.60;99.90;;;;;;5008264;28;20049;-85
2024/01/23 06:05:24;;;;;;;25.80;4.68;;;6.60;99.90;;;;;;5024831;28;20033;-85
2024/01/23 06:07:51;;;;;;;29.17;5.40;;;6.50;99.90;;;;;;5034301;28;20050;-84
2024/01/23 06:10:17;;;;;;;25.45;4.47;;;6.50;99.90;;;;;;5031375;28;20030;-83
2024/01/23 06:12:45;;;;;;;27.83;5.18;;;6.50;99.90;;;;;;5031916;28;20128;-85
2024/01/23 06:15:11;;;;;;;35.75;5.10;;;6.50;99.90;;;;;;5014002;28;20050;-83
2024/01/23 06:17:37;;;;;;;26.70;5.00;;;6.50;99.90;;;;;;5035488;28;20054;-82
2024/01/23 06:20:04;;;;;;;26.23;4.90;;;6.50;99.90;;;;;;5026083;28;20037;-82
2024/01/23 06:22:34;;;;;;;28.55;4.45;;;6.50;99.90;;;;;;5033592;28;20049;-82
2024/01/23 06:25:08;;;;;;;30.73;5.85;;;6.40;99.90;;;;;;5026189;28;20499;-83
2024/01/23 06:27:35;;;;;;;38.38;6.38;;;6.40;99.90;;;;;;5026112;28;20400;-85
2024/01/23 06:30:02;;;;;;;34.08;4.80;;;6.40;99.90;;;;;;5033175;28;20395;-82
2024/01/23 06:32:28;;;;;;;31.58;5.95;;;6.40;99.90;;;;;;5029515;28;20056;-83
2024/01/23 06:34:54;;;;;;;32.25;5.45;;;6.40;99.90;;;;;;5032708;28;20050;-84
2024/01/23 06:37:20;;;;;;;26.33;4.97;;;6.40;99.90;;;;;;5032401;28;20490;-84
2024/01/23 06:39:47;;;;;;;27.60;5.07;;;6.30;99.90;;;;;;5026317;28;20046;-85
2024/01/23 06:42:13;;;;;;;29.33;5.25;;;6.30;99.90;;;;;;5022185;28;20056;-83
2024/01/23 06:44:39;;;;;;;23.63;4.70;;;6.30;99.90;;;;;;5031974;28;20049;-84
2024/01/23 06:47:05;;;;;;;40.25;5.65;;;6.30;99.90;;;;;;5016568;28;20124;-84
2024/01/23 06:49:30;;;;;;;34.10;5.75;;;6.20;99.90;;;;;;5032954;28;20049;-89
2024/01/23 06:51:56;;;;;;;35.83;4.50;;;6.20;99.90;;;;;;5031100;28;20077;-86
2024/01/23 06:54:22;;;;;;;34.15;5.63;;;6.20;99.90;;;;;;5015014;28;20045;-84
2024/01/23 06:56:48;;;;;;;26.65;4.25;;;6.20;99.90;;;;;;5014788;28;20129;-86
2024/01/23 06:59:15;;;;;;;30.95;4.88;;;6.10;99.90;;;;;;5003857;28;20045;-89
2024/01/23 07:01:41;;;;;;;25.85;4.35;;;6.10;99.90;;;;;;5019038;28;20045;-81
2024/01/23 07:04:07;;;;;;;34.50;5.10;;;6.80;99.90;;;;;;5029980;28;20056;-82
2024/01/23 07:06:33;;;;;;;34.15;6.05;;;6.10;99.90;;;;;;5033158;28;20051;-84
2024/01/23 07:08:59;;;;;;;26.88;4.63;;;6.10;99.90;;;;;;5032262;28;20049;-85
2024/01/23 07:11:25;;;;;;;44.10;7.32;;;6.00;99.90;;;;;;5025637;28;20123;-85
2024/01/23 07:13:51;;;;;;;26.75;4.47;;;6.00;99.90;;;;;;5034007;28;20483;-86
2024/01/23 07:16:17;;;;;;;37.25;6.28;;;6.00;99.90;;;;;;5034870;28;20046;-84
2024/01/23 07:18:43;;;;;;;24.10;4.63;;;6.30;99.90;;;;;;5032751;28;20072;-85
2024/01/23 07:21:09;;;;;;;34.85;5.68;;;6.00;99.90;;;;;;5033574;28;20091;-86
2024/01/23 07:23:36;;;;;;;31.92;4.85;;;6.00;99.90;;;;;;5031519;28;20050;-82
2024/01/23 07:26:02;;;;;;;39.58;5.60;;;5.90;99.90;;;;;;5031754;28;20057;-84
2024/01/23 07:28:28;;;;;;;27.67;5.85;;;5.90;99.90;;;;;;5015324;28;20380;-84
2024/01/23 07:30:57;;;;;;;23.65;4.28;;;5.90;99.90;;;;;;5013655;28;20096;-83
2024/01/23 07:33:22;;;;;;;29.50;5.35;;;5.90;99.90;;;;;;5025562;28;20525;-84
2024/01/23 07:35:49;;;;;;;29.27;5.22;;;5.90;99.90;;;;;;5031523;28;20088;-85
2024/01/23 07:38:16;;;;;;;30.98;4.35;;;5.80;99.90;;;;;;5028478;28;20057;-85
2024/01/23 07:40:41;;;;;;;26.83;5.40;;;5.80;99.90;;;;;;5031617;28;20045;-87
2024/01/23 07:43:07;;;;;;;36.28;6.43;;;5.80;99.90;;;;;;5032218;28;20483;-86
2024/01/23 07:45:33;;;;;;;35.47;5.90;;;5.80;99.90;;;;;;5029046;28;20370;-86
2024/01/23 07:47:59;;;;;;;29.77;5.78;;;5.80;99.90;;;;;;5031965;28;20058;-86
2024/01/23 07:50:27;;;;;;;31.98;5.82;;;5.70;99.90;;;;;;5032479;28;20052;-87
2024/01/23 07:52:53;;;;;;;33.22;5.20;;;5.70;99.90;;;;;;5033089;28;20057;-85
2024/01/23 07:55:18;;;;;;;41.15;6.53;;;5.70;99.90;;;;;;5031528;28;20049;-86
2024/01/23 07:57:44;;;;;;;30.90;6.45;;;5.70;99.90;;;;;;5031829;28;20060;-86
2024/01/23 08:00:11;;;;;;;30.17;4.85;;;5.70;99.90;;;;;;5033601;28;20053;-87
2024/01/23 08:02:37;;;;;;;29.70;5.85;;;5.70;99.90;;;;;;5012481;28;20053;-87
2024/01/23 08:05:03;;;;;;;37.05;5.75;;;5.70;99.90;;;;;;5032762;28;20045;-86
2024/01/23 08:07:28;;;;;;;26.27;5.53;;;5.50;99.90;;;;;;5029219;28;20053;-86
2024/01/23 08:09:54;;;;;;;29.15;5.35;;;5.60;99.90;;;;;;5032921;28;20429;-86
2024/01/23 08:12:20;;;;;;;28.40;5.85;;;5.60;99.90;;;;;;5032349;28;20505;-86
2024/01/23 08:14:45;;;;;;;34.35;6.18;;;5.70;99.90;;;;;;5031685;28;20041;-85
2024/01/23 08:17:11;;;;;;;43.55;5.68;;;5.70;99.90;;;;;;5030071;28;20133;-85
2024/01/23 08:19:39;;;;;;;31.48;5.72;;;5.70;99.90;;;;;;5031187;28;20076;-86
2024/01/23 08:22:05;;;;;;;41.58;6.13;;;5.70;99.90;;;;;;5031733;28;20502;-86
2024/01/23 08:24:31;;;;;;;38.97;6.00;;;5.70;99.90;;;;;;5015311;28;20057;-84
2024/01/23 08:26:57;;;;;;;28.85;4.65;;;5.70;99.90;;;;;;5028276;28;20041;-85
2024/01/23 08:29:23;;;;;;;46.22;6.57;;;5.70;99.90;;;;;;5023840;28;20621;-86
2024/01/23 08:31:49;;;;;;;38.45;6.70;;;5.70;99.90;;;;;;5032114;28;20179;-86
2024/01/23 08:34:14;;;;;;;41.50;5.40;;;5.70;99.90;;;;;;5032675;28;20376;-86
2024/01/23 08:36:40;;;;;;;26.80;5.43;;;5.70;99.90;;;;;;5031535;28;20041;-86
2024/01/23 08:39:06;;;;;;;29.55;5.38;;;5.70;99.90;;;;;;5032337;28;20045;-86
2024/01/23 08:41:31;;;;;;;32.97;6.07;;;5.70;99.90;;;;;;5032262;28;20041;-85
2024/01/23 08:43:57;;;;;;;32.58;5.40;;;5.70;99.90;;;;;;5031639;28;20444;-86
2024/01/23 08:46:23;;;;;;;38.67;5.05;;;5.70;99.90;;;;;;5032744;28;20125;-87
2024/01/23 08:48:52;;;;;;;41.65;5.30;;;5.70;99.90;;;;;;5033849;28;20046;-85
2024/01/23 08:51:17;;;;;;;31.95;4.88;;;5.70;99.90;;;;;;5034378;28;20172;-85
2024/01/23 08:53:43;;;;;;;30.25;6.28;;;5.70;99.90;;;;;;5034231;28;20116;-85
2024/01/23 08:56:09;;;;;;;25.35;4.63;;;5.80;99.90;;;;;;5029014;28;20045;-85
2024/01/23 08:58:34;;;;;;;33.67;5.28;;;5.80;99.90;;;;;;5024683;28;20049;-85
2024/01/23 09:01:00;;;;;;;32.15;4.85;;;5.80;99.90;;;;;;5034252;28;20426;-86
2024/01/23 09:03:26;;;;;;;24.80;6.13;;;5.80;99.90;;;;;;5034984;28;20502;-86
2024/01/23 09:05:51;;;;;;;30.15;4.95;;;5.80;99.90;;;;;;5028681;28;20052;-86
2024/01/23 09:08:17;;;;;;;34.28;5.70;;;5.80;99.90;;;;;;5035069;28;20049;-86
2024/01/23 09:10:43;;;;;;;34.47;5.95;;;5.80;99.90;;;;;;5023397;28;20038;-85
2024/01/23 09:13:08;;;;;;;38.35;5.97;;;6.30;99.90;;;;;;5022313;28;20390;-84
2024/01/23 09:15:35;;;;;;;32.60;4.68;;;5.90;99.90;;;;;;5033719;28;20053;-85
2024/01/23 09:18:01;;;;;;;31.73;5.70;;;5.90;99.90;;;;;;5033216;28;20045;-85
2024/01/23 09:20:27;;;;;;;35.40;5.35;;;5.90;99.90;;;;;;5033609;28;20053;-84
2024/01/23 09:22:53;;;;;;;27.30;5.38;;;5.90;99.90;;;;;;5019147;28;20056;-86
2024/01/23 09:25:18;;;;;;;33.83;6.07;;;5.90;99.90;;;;;;5013597;28;20073;-84
2024/01/23 09:27:45;;;;;;;30.45;6.00;;;6.20;99.90;;;;;;5030285;28;20056;-85
2024/01/23 09:30:11;;;;;;;27.65;5.40;;;6.00;99.90;;;;;;5012847;28;20096;-86
2024/01/23 09:32:37;;;;;;;28.42;5.28;;;6.00;99.90;;;;;;5014829;28;20045;-84
2024/01/23 09:35:02;;;;;;;29.48;4.63;;;6.00;99.90;;;;;;5030821;28;20084;-85
2024/01/23 09:37:28;;;;;;;35.67;5.15;;;6.10;99.90;;;;;;5033089;28;20053;-85
2024/01/23 09:39:55;;;;;;;31.98;5.57;;;6.10;99.90;;;;;;5034091;28;20056;-84
2024/01/23 09:42:25;;;;;;;28.20;5.18;;;6.10;99.90;;;;;;5029268;28;20046;-85
2024/01/23 09:44:55;;;;;;;42.08;5.40;;;6.20;99.90;;;;;;5032419;28;20060;-84
2024/01/23 09:47:23;;;;;;;35.95;5.10;;;6.20;99.90;;;;;;5033103;28;20069;-87
2024/01/23 09:49:51;;;;;;;32.10;4.88;;;6.20;99.90;;;;;;5034596;28;20045;-85
2024/01/23 09:52:18;;;;;;;32.10;5.45;;;6.20;99.90;;;;;;5016014;28;20800;-85
2024/01/23 09:54:45;;;;;;;40.65;6.13;;;6.20;99.90;;;;;;5033231;28;20049;-85
2024/01/23 09:57:12;;;;;;;38.17;6.10;;;6.30;99.90;;;;;;5033950;28;20061;-85
2024/01/23 09:59:38;;;;;;;29.85;5.90;;;6.30;99.90;;;;;;5032966;28;20060;-85
2024/01/23 10:02:05;;;;;;;21.23;4.88;;;7.00;99.90;;;;;;5034306;28;20060;-85
2024/01/23 10:04:33;;;;;;;32.67;5.43;;;6.50;99.90;;;;;;5032932;28;20068;-82
2024/01/23 10:07:05;;;;;;;27.15;4.75;;;6.40;99.90;;;;;;5032748;28;20054;-85
2024/01/23 10:09:31;;;;;;;26.77;5.15;;;6.50;99.90;;;;;;5013681;28;20445;-83
2024/01/23 10:11:57;;;;;;;29.15;5.40;;;6.80;99.90;;;;;;5019362;28;20038;-85
2024/01/23 10:14:22;;;;;;;31.30;5.80;;;6.50;99.90;;;;;;5034065;28;20124;-86
2024/01/23 10:16:48;;;;;;;25.33;5.25;;;6.50;99.90;;;;;;5033342;28;20122;-86
2024/01/23 10:19:14;;;;;;;35.83;5.70;;;6.60;99.90;;;;;;5032716;28;20510;-86
2024/01/23 10:21:40;;;;;;;31.27;5.60;;;6.70;99.90;;;;;;5034153;28;20112;-86
2024/01/23 10:24:09;;;;;;;21.13;4.38;;;6.70;99.90;;;;;;5032354;28;20468;-85
2024/01/23 10:26:35;;;;;;;31.70;4.90;;;6.80;99.90;;;;;;5032156;28;20050;-85
2024/01/23 10:29:04;;;;;;;21.58;4.07;;;6.90;99.90;;;;;;5029917;28;20099;-84
2024/01/23 10:31:30;;;;;;;27.60;5.28;;;6.90;99.90;;;;;;5032718;28;20129;-87
2024/01/23 10:33:57;;;;;;;34.38;5.40;;;7.00;99.90;;;;;;5033073;28;20084;-85
2024/01/23 10:36:23;;;;;;;35.78;6.22;;;7.00;99.90;;;;;;5031873;28;20052;-80
2024/01/23 10:38:50;;;;;;;23.55;4.78;;;7.00;99.90;;;;;;5033948;28;20056;-85
2024/01/23 10:41:18;;;;;;;25.02;4.82;;;7.10;99.90;;;;;;5034392;28;20045;-86
2024/01/23 10:43:46;;;;;;;30.42;5.50;;;7.20;99.90;;;;;;5036418;28;20115;-86
2024/01/23 10:46:12;;;;;;;28.52;4.72;;;7.10;99.90;;;;;;5028709;28;20605;-85
2024/01/23 10:48:37;;;;;;;22.95;5.78;;;7.10;99.90;;;;;;5016856;28;20058;-86
2024/01/23 10:51:23;;;;;;;30.17;5.90;;;7.20;99.90;;;;;;5021965;28;20468;-86
2024/01/23 10:54:01;;;;;;;29.20;4.63;;;7.20;99.90;;;;;;5037698;28;20045;-86
2024/01/23 10:56:43;;;;;;;29.15;5.03;;;7.30;99.90;;;;;;5035886;28;20492;-84
2024/01/23 10:59:17;;;;;;;30.00;5.47;;;7.30;99.90;;;;;;5035265;28;20045;-87
2024/01/23 11:01:48;;;;;;;34.45;5.15;;;7.30;99.90;;;;;;5036287;28;20095;-86
2024/01/23 11:04:15;;;;;;;19.52;4.85;;;7.30;99.90;;;;;;5035643;28;20041;-84
2024/01/23 11:06:56;;;;;;;29.10;5.28;;;7.30;99.90;;;;;;5033736;28;20048;-86
2024/01/23 11:09:50;;;;;;;21.42;4.35;;;7.40;99.90;;;;;;5031344;28;20058;-84
2024/01/23 11:12:28;;;;;;;32.87;4.87;;;7.40;99.90;;;;;;5019583;28;20119;-84
2024/01/23 11:15:12;;;;;;;24.70;4.97;;;7.50;99.90;;;;;;5034853;28;20292;-85
2024/01/23 11:17:39;;;;;;;24.35;4.82;;;7.50;99.90;;;;;;5036111;28;20049;-85
2024/01/23 11:20:15;;;;;;;27.50;4.35;;;7.50;99.90;;;;;;5034791;28;20132;-85
2024/01/23 11:22:41;;;;;;;28.48;4.55;;;7.50;99.90;;;;;;5033463;28;20042;-85
2024/01/23 11:25:08;;;;;;;28.13;4.90;;;7.50;99.90;;;;;;5034934;28;20120;-85
2024/01/23 11:27:37;;;;;;;27.70;4.55;;;7.60;99.90;;;;;;5034867;28;20394;-85
2024/01/23 11:30:04;;;;;;;28.30;4.95;;;7.50;99.90;;;;;;5034961;28;20049;-85
2024/01/23 11:32:33;;;;;;;26.30;4.07;;;7.60;99.90;;;;;;5034627;28;20510;-86
2024/01/23 11:35:11;;;;;;;24.42;4.30;;;7.60;99.90;;;;;;5025540;28;20100;-85
2024/01/23 11:37:53;;;;;;;22.60;5.25;;;7.60;99.90;;;;;;5018606;28;20041;-85
2024/01/23 11:40:33;;;;;;;37.67;6.28;;;7.60;99.90;;;;;;5035066;28;20049;-86
2024/01/23 11:43:06;;;;;;;19.35;4.00;;;7.50;99.90;;;;;;5034674;28;20422;-85
2024/01/23 11:45:37;;;;;;;30.17;5.03;;;7.50;99.90;;;;;;5034752;28;20060;-85
2024/01/23 11:48:04;;;;;;;26.42;4.25;;;7.60;99.90;;;;;;5034849;28;20054;-85
2024/01/23 11:50:35;;;;;;;28.75;4.78;;;7.60;99.90;;;;;;5034472;28;20124;-87
2024/01/23 11:53:02;;;;;;;31.85;4.60;;;7.50;99.90;;;;;;5033480;28;20739;-85
2024/01/23 11:55:28;;;;;;;27.73;4.82;;;7.50;99.90;;;;;;5034069;28;20103;-85
2024/01/23 11:57:55;;;;;;;23.10;4.55;;;7.40;99.90;;;;;;5034136;28;20128;-85
2024/01/23 12:00:22;;;;;;;32.00;5.68;;;7.40;99.90;;;;;;5033866;28;20114;-83
2024/01/23 12:02:49;;;;;;;27.15;4.50;;;7.40;99.90;;;;;;5034288;28;20057;-85
2024/01/23 12:05:16;;;;;;;34.47;4.97;;;7.50;99.90;;;;;;5033929;28;20041;-85
2024/01/23 12:07:42;;;;;;;25.58;5.05;;;7.50;99.90;;;;;;5033548;28;20052;-82
2024/01/23 12:10:10;;;;;;;31.92;5.93;;;7.50;99.90;;;;;;5013914;28;20049;-86
2024/01/23 12:12:36;;;;;;;31.25;4.40;;;7.50;99.90;;;;;;5033558;28;20467;-85
2024/01/23 12:15:04;;;;;;;21.10;4.40;;;7.80;99.90;;;;;;5017800;28;20043;-84
2024/01/23 12:17:34;;;;;;;19.35;3.97;;;7.70;99.90;;;;;;5030813;28;20061;-86
2024/01/23 12:20:10;;;;;;;26.30;4.75;;;7.70;99.90;;;;;;5023090;28;20045;-85
2024/01/23 12:22:39;;;;;;;27.23;4.97;;;7.80;99.90;;;;;;5033316;28;20056;-85
2024/01/23 12:25:06;;;;;;;29.65;5.30;;;7.80;99.90;;;;;;5034354;28;20061;-85
2024/01/23 12:27:32;;;;;;;21.95;4.47;;;7.90;99.90;;;;;;5025967;28;20046;-83
2024/01/23 12:29:59;;;;;;;29.50;5.38;;;8.00;99.90;;;;;;5015010;28;20475;-81
2024/01/23 12:32:31;;;;;;;24.17;4.85;;;8.20;99.90;;;;;;5014666;28;20049;-81
2024/01/23 12:34:57;;;;;;;26.45;4.22;;;8.00;99.90;;;;;;5014503;28;20045;-83
2024/01/23 12:37:31;;;;;;;32.78;5.10;;;8.10;99.90;;;;;;5014707;28;20050;-83
2024/01/23 12:40:05;;;;;;;31.20;5.05;;;8.10;99.90;;;;;;5016050;28;20053;-84
2024/01/23 12:42:30;;;;;;;28.88;5.55;;;8.30;99.90;;;;;;5025135;28;20056;-83
2024/01/23 12:44:57;;;;;;;26.08;3.97;;;8.20;99.90;;;;;;5032168;28;20037;-84
2024/01/23 12:47:22;;;;;;;24.98;4.82;;;8.20;99.90;;;;;;5030653;28;20050;-84